Europa — C6QK8 — position and weather

sailwx.info

Track history (hours):
 
Tides and Currents Weather Stations Pressure Air Temp Water Temp Dewpoint Dewpoint Depression Visibility Wind Speed Wind Dir Waves Ship Positions

Europa

Operator: Hapag-Lloyd Container Line

Last reported at 2017-Oct-22 06:00 UTC. Time now 2017-Oct-23 02:11 UTC.
Position N 45°04' W 000°38'.

Length 199 m; draft 6.2 m.

Type: Passenger vessel. MMSI: 308007000.

Date/timePositionNaut miles runAvg speedWind from/ knotsBaromVisibWave heightAir tempDewpointWater temp
2017-Oct-22 06:00N 45°04' W 000°38'612.1
2017-Oct-22 05:29N 45°09' W 000°43'713.3
2017-Oct-22 04:59N 45°16' W 000°45'714.3
2017-Oct-22 04:31N 45°22' W 000°49'714.3
2017-Oct-22 04:00N 45°28' W 000°55'714.0
2017-Oct-22 03:31N 45°33' W 001°02'714.2
2017-Oct-22 03:01N 45°39' W 001°08'612.8
2017-Oct-22 02:31N 45°38' W 001°17'714.4
2017-Oct-22 02:01N 45°35' W 001°26'713.6
2017-Oct-22 01:30N 45°41' W 001°31'714.8
2017-Oct-22 01:00N 45°48' W 001°35'714.5
2017-Oct-22 00:30N 45°55' W 001°37'714.6
2017-Oct-22 00:00N 46°02' W 001°38'612.0
2017-Oct-21 23:31N 46°07' W 001°34'612.5
2017-Oct-21 23:00N 46°07' W 001°25'4 8.3
2017-Oct-21 22:30N 46°06' W 001°20'3 6.9
2017-Oct-21 22:00N 46°08' W 001°15'2 4.0
2017-Oct-21 21:30N 46°10' W 001°14'0 0.0
2017-Oct-21 20:59N 46°10' W 001°14'0 0.0
2017-Oct-21 20:23N 46°10' W 001°14'0 0.0
2017-Oct-21 19:59N 46°10' W 001°14'0 0.0
2017-Oct-21 19:29N 46°10' W 001°14'0 0.0
2017-Oct-21 18:59N 46°10' W 001°14'0 0.0
2017-Oct-21 18:29N 46°10' W 001°14'0 0.0
2017-Oct-21 17:53N 46°10' W 001°14'0 0.0
2017-Oct-21 17:29N 46°10' W 001°14'0 0.0
2017-Oct-21 16:59N 46°10' W 001°14'0 0.0
2017-Oct-21 16:29N 46°10' W 001°14'0 0.0
2017-Oct-21 15:59N 46°10' W 001°14'0 0.0
2017-Oct-21 15:29N 46°10' W 001°14'0 0.0
2017-Oct-21 14:59N 46°10' W 001°14'0 0.0
2017-Oct-21 13:59N 46°10' W 001°14'0 0.0
2017-Oct-21 13:29N 46°10' W 001°14'0 0.0
2017-Oct-21 12:59N 46°10' W 001°14'0 0.0
2017-Oct-21 12:29N 46°10' W 001°14'0 0.0
2017-Oct-21 11:59N 46°10' W 001°14'0 0.0
2017-Oct-21 11:29N 46°10' W 001°14'0 0.0
2017-Oct-21 10:59N 46°10' W 001°14'0 0.0
2017-Oct-21 10:29N 46°10' W 001°14'0 0.0
2017-Oct-21 09:59N 46°10' W 001°14'0 0.0
2017-Oct-21 09:29N 46°10' W 001°14'0 0.0
2017-Oct-21 08:59N 46°10' W 001°14'0 0.0
2017-Oct-21 08:29N 46°10' W 001°14'0 0.0
2017-Oct-21 07:59N 46°10' W 001°14'0 0.0
2017-Oct-21 07:29N 46°10' W 001°14'0 0.0
2017-Oct-21 06:59N 46°10' W 001°14'0 0.0
2017-Oct-21 06:29N 46°10' W 001°14'0 0.0
2017-Oct-21 05:59N 46°10' W 001°14'0 0.0
2017-Oct-21 05:29N 46°10' W 001°14'0 0.0
2017-Oct-21 05:00N 46°10' W 001°14'0 0.4
2017-Oct-21 04:31N 46°10' W 001°15'3 6.2
2017-Oct-21 04:01N 46°07' W 001°16'611.3
2017-Oct-21 03:30N 46°06' W 001°24'612.9
2017-Oct-21 03:00N 46°07' W 001°33'713.2
2017-Oct-21 02:31N 46°09' W 001°42'713.2
2017-Oct-21 02:00N 46°13' W 001°49'713.2
2017-Oct-21 01:30N 46°18' W 001°56'713.4
2017-Oct-21 01:00N 46°22' W 002°03'713.5
2017-Oct-21 00:30N 46°27' W 002°10'713.5
2017-Oct-21 00:00N 46°32' W 002°16'713.3
2017-Oct-20 23:30N 46°37' W 002°24'714.8
2017-Oct-20 23:00N 46°42' W 002°32'815.0
2017-Oct-20 22:30N 46°48' W 002°37'815.4
2017-Oct-20 22:00N 46°56' W 002°41'713.3
2017-Oct-20 21:30N 47°02' W 002°37'816.9
2017-Oct-20 21:00N 47°05' W 002°26'612.4
2017-Oct-20 20:30N 47°09' W 002°19'815.6
2017-Oct-20 20:01N 47°16' W 002°12'815.1
2017-Oct-20 19:31N 47°18' W 002°01'713.2
2017-Oct-20 19:01N 47°16' W 001°52'611.6
2017-Oct-20 18:30N 47°12' W 001°46'5 9.0
2017-Oct-20 18:00N 47°11' W 001°39'3 5.8
2017-Oct-20 17:31N 47°12' W 001°35'1 1.4
2017-Oct-20 16:59N 47°12' W 001°36'0 0.0
2017-Oct-20 16:21N 47°12' W 001°36'0 0.0
2017-Oct-20 16:00N 47°12' W 001°36'0 0.0
2017-Oct-20 15:27N 47°12' W 001°36'0 0.0
2017-Oct-20 15:00N 47°12' W 001°36'0 0.0
2017-Oct-20 09:57N 47°12' W 001°36'0 0.0
2017-Oct-20 08:36N 47°12' W 001°36'0 0.0
2017-Oct-20 08:24N 47°12' W 001°36'0 0.0
2017-Oct-20 08:00N 47°12' W 001°36'0 0.0
2017-Oct-20 07:30N 47°12' W 001°36'0 0.0
2017-Oct-20 06:54N 47°12' W 001°36'0 0.0
2017-Oct-20 06:15N 47°12' W 001°36'0 0.0
2017-Oct-20 06:00N 47°12' W 001°36'0 0.0
2017-Oct-20 03:45N 47°12' W 001°36'0 0.0
2017-Oct-20 03:30N 47°12' W 001°36'0 0.0
2017-Oct-20 00:27N 47°12' W 001°36'0 0.0
2017-Oct-19 23:09N 47°12' W 001°36'0 0.0
2017-Oct-19 22:54N 47°12' W 001°36'0 0.0
2017-Oct-19 22:27N 47°12' W 001°36'0 0.0
2017-Oct-19 21:54N 47°12' W 001°36'0 0.0
2017-Oct-19 21:30N 47°12' W 001°36'0 0.0
2017-Oct-19 21:00N 47°12' W 001°36'0 0.0
2017-Oct-19 20:30N 47°12' W 001°36'0 0.0
2017-Oct-19 20:00N 47°12' W 001°36'0 0.0
2017-Oct-19 19:30N 47°12' W 001°36'0 0.0
2017-Oct-19 18:57N 47°12' W 001°36'0 0.0
2017-Oct-19 18:30N 47°12' W 001°36'0 0.0
2017-Oct-19 18:00N 47°12' W 001°36'0 0.0
2017-Oct-19 17:27N 47°12' W 001°36'0 0.0
2017-Oct-19 17:00N 47°12' W 001°36'0 0.0
2017-Oct-19 16:30N 47°12' W 001°36'0 0.0
2017-Oct-19 16:00N 47°12' W 001°36'0 0.0
2017-Oct-19 15:30N 47°12' W 001°36'0 0.0
2017-Oct-19 15:00N 47°12' W 001°36'0 0.0
2017-Oct-19 13:54N 47°12' W 001°36'0 0.0
2017-Oct-19 08:15N 47°12' W 001°36'0 0.0
2017-Oct-19 07:51N 47°12' W 001°36'0 0.0
2017-Oct-19 07:30N 47°12' W 001°36'0 0.0
2017-Oct-19 06:54N 47°12' W 001°36'0 0.0
2017-Oct-19 06:30N 47°12' W 001°36'0 0.0
2017-Oct-19 06:00N 47°12' W 001°36'0 0.0
2017-Oct-19 05:30N 47°12' W 001°36'0 0.2
2017-Oct-19 05:00N 47°12' W 001°36'3 5.7
2017-Oct-19 04:30N 47°12' W 001°40'510.4
2017-Oct-19 04:01N 47°13' W 001°48'611.5
2017-Oct-19 03:30N 47°17' W 001°54'612.2
2017-Oct-19 03:00N 47°18' W 002°02'611.7
2017-Oct-19 02:31N 47°17' W 002°11'611.8
2017-Oct-19 02:00N 47°12' W 002°17'612.1
2017-Oct-19 01:30N 47°07' W 002°22'5 9.7
2017-Oct-19 01:00N 47°04' W 002°27'611.2
2017-Oct-19 00:30N 47°01' W 002°34'510.8
2017-Oct-19 00:00N 46°59' W 002°42'611.1
2017-Oct-18 23:30N 47°01' W 002°49'611.8
2017-Oct-18 23:00N 47°05' W 002°56'714.0
2017-Oct-18 22:30N 47°08' W 003°05'713.8
2017-Oct-18 22:00N 47°12' W 003°14'713.2
2017-Oct-18 21:30N 47°15' W 003°22'713.5
2017-Oct-18 21:00N 47°19' W 003°31'713.8
2017-Oct-18 20:30N 47°22' W 003°39'713.8
2017-Oct-18 20:00N 47°26' W 003°48'713.6
2017-Oct-18 19:30N 47°28' W 003°57'713.8
2017-Oct-18 19:00N 47°32' W 004°06'713.6
2017-Oct-18 18:31N 47°34' W 004°15'713.6
2017-Oct-18 18:00N 47°38' W 004°25'714.2
2017-Oct-18 17:30N 47°41' W 004°34'917.8
2017-Oct-18 17:01N 47°46' W 004°45'918.0
2017-Oct-18 16:31N 47°52' W 004°55'918.2
2017-Oct-18 16:01N 47°58' W 005°05'816.0
2017-Oct-18 15:31N 48°05' W 005°10'816.4
2017-Oct-18 15:01N 48°10' W 004°60'1717.2
2017-Oct-18 14:01N 48°19' W 004°38'611.4
2017-Oct-18 13:30N 48°21' W 004°30'2 4.3
2017-Oct-18 12:58N 48°23' W 004°27'0 0.0
2017-Oct-18 12:28N 48°23' W 004°27'0 0.0
2017-Oct-18 11:58N 48°23' W 004°27'0 0.0
2017-Oct-18 11:28N 48°23' W 004°27'0 0.0
2017-Oct-18 10:58N 48°23' W 004°27'0 0.0
2017-Oct-18 10:28N 48°23' W 004°27'0 0.0
2017-Oct-18 09:58N 48°23' W 004°27'0 0.0
2017-Oct-18 09:28N 48°23' W 004°27'0 0.0
2017-Oct-18 09:00N 48°23' W 004°27'0 0.0
2017-Oct-18 08:28N 48°23' W 004°27'0 0.0
2017-Oct-18 07:58N 48°23' W 004°27'0 0.0
2017-Oct-18 07:28N 48°23' W 004°27'0 0.0
2017-Oct-18 06:58N 48°23' W 004°27'0 0.0
2017-Oct-18 06:28N 48°23' W 004°27'0 0.0
2017-Oct-18 05:58N 48°23' W 004°27'0 0.0
2017-Oct-18 05:28N 48°23' W 004°27'0 0.0
2017-Oct-18 04:58N 48°23' W 004°27'0 0.4
2017-Oct-18 04:30N 48°23' W 004°27'3 6.1
2017-Oct-18 04:00N 48°21' W 004°31'713.3
2017-Oct-18 03:30N 48°18' W 004°40'510.2
2017-Oct-18 03:01N 48°17' W 004°47'611.8
2017-Oct-18 02:30N 48°16' W 004°56'611.3
2017-Oct-18 02:00N 48°18' W 005°04'611.1
2017-Oct-18 01:31N 48°22' W 005°10'612.5
2017-Oct-18 01:01N 48°25' W 005°19'611.7
2017-Oct-18 00:30N 48°30' W 005°23'713.7
2017-Oct-17 23:58N 48°36' W 005°18'816.4
2017-Oct-17 23:30N 48°41' W 005°09'917.7
2017-Oct-17 23:00N 48°44' W 004°56'918.4
2017-Oct-17 22:30N 48°46' W 004°43'1019.1
2017-Oct-17 21:58N 48°50' W 004°28'919.7
2017-Oct-17 21:31N 48°52' W 004°15'1020.0
2017-Oct-17 21:00N 48°55' W 004°00'1419.5
2017-Oct-17 20:18N 48°58' W 003°40'6713.5
2017-Oct-17 15:18N 48°38' W 002°02'0 0.0
2017-Oct-17 09:57N 48°38' W 002°02'0 0.0
2017-Oct-17 08:57N 48°38' W 002°02'0 0.0
2017-Oct-17 08:27N 48°38' W 002°02'0 0.0
2017-Oct-17 08:00N 48°38' W 002°02'0 0.0
2017-Oct-17 07:21N 48°38' W 002°02'0 0.0
2017-Oct-17 07:00N 48°38' W 002°02'0 0.0
2017-Oct-17 06:30N 48°38' W 002°02'0 0.8
2017-Oct-17 06:00N 48°38' W 002°02'510.6
2017-Oct-17 05:30N 48°42' W 002°08'4 8.5
2017-Oct-17 05:00N 48°44' W 002°13'5 9.3
2017-Oct-17 04:30N 48°48' W 002°17'612.2
2017-Oct-17 04:00N 48°54' W 002°21'714.0
2017-Oct-17 03:31N 49°00' W 002°23'714.6
2017-Oct-17 03:00N 49°08' W 002°23'714.3
2017-Oct-17 02:30N 49°15' W 002°22'714.4
2017-Oct-17 02:00N 49°22' W 002°19'917.6
2017-Oct-17 01:29N 49°30' W 002°11'1619.4
2017-Oct-17 00:39N 49°44' W 002°02'319.2
2017-Oct-17 00:29N 49°47' W 001°58'1020.5
2017-Oct-17 00:00N 49°47' W 001°43'1020.5
2017-Oct-16 23:30N 49°47' W 001°27'1121.1
2017-Oct-16 23:00N 49°44' W 001°11'1020.2
2017-Oct-16 22:30N 49°40' W 000°57'918.7
2017-Oct-16 22:00N 49°37' W 000°43'918.5
2017-Oct-16 21:30N 49°34' W 000°30'917.8
2017-Oct-16 21:00N 49°31' W 000°17'917.4
2017-Oct-16 20:30N 49°29' W 000°04'611.8
2017-Oct-16 20:00N 49°26' E 000°04'611.9
2017-Oct-16 19:30N 49°26' E 000°13'611.2
2017-Oct-16 19:00N 49°26' E 000°22'611.4
2017-Oct-16 18:30N 49°29' E 000°29'4 8.6
2017-Oct-16 18:00N 49°26' E 000°34'4 8.8
2017-Oct-16 17:30N 49°29' E 000°40'2 0.0
2017-Oct-15 04:15N 49°27' E 000°40'411.3
2017-Oct-15 03:53N 49°27' E 000°33'4 8.7
2017-Oct-15 03:28N 49°29' E 000°29'613.8
2017-Oct-15 03:00N 49°26' E 000°20'611.9
2017-Oct-15 02:31N 49°26' E 000°11'612.8
2017-Oct-15 02:01N 49°27' E 000°01'510.8
2017-Oct-15 01:30N 49°29' W 000°07'4 8.5
2017-Oct-15 01:01N 49°33' W 000°11'611.3
2017-Oct-15 00:30N 49°38' W 000°10'611.2
2017-Oct-15 00:00N 49°44' W 000°09'611.5
2017-Oct-14 23:30N 49°49' W 000°09'611.3
2017-Oct-14 23:01N 49°55' W 000°08'611.4
2017-Oct-14 22:31N 50°01' W 000°06'611.7
2017-Oct-14 22:00N 50°07' W 000°05'612.0
2017-Oct-14 21:30N 50°13' W 000°05'814.6
2017-Oct-14 20:59N 50°20' W 000°04'714.6
2017-Oct-14 20:30N 50°27' W 000°02'815.1
2017-Oct-14 20:00N 50°29' E 000°09'815.0
2017-Oct-14 19:30N 50°31' E 000°20'714.7
2017-Oct-14 19:00N 50°34' E 000°31'714.4
2017-Oct-14 18:30N 50°38' E 000°41'816.1
2017-Oct-14 18:00N 50°42' E 000°51'917.4
2017-Oct-14 17:30N 50°47' E 001°03'917.4
2017-Oct-14 17:00N 50°52' E 001°14'917.8
2017-Oct-14 16:30N 50°59' E 001°23'918.8
2017-Oct-14 16:00N 51°06' E 001°34'1019.3
2017-Oct-14 15:30N 51°13' E 001°44'1019.3
2017-Oct-14 15:00N 51°21' E 001°52'918.9
2017-Oct-14 14:30N 51°29' E 002°01'918.5
2017-Oct-14 14:00N 51°36' E 002°10'918.2
2017-Oct-14 13:30N 51°43' E 002°19'917.7
2017-Oct-14 12:59N 51°50' E 002°30'1017.4
2017-Oct-14 12:24N 51°57' E 002°40'817.1
2017-Oct-14 11:58N 52°03' E 002°48'816.9
2017-Oct-14 11:30N 52°09' E 002°56'816.6
2017-Oct-14 11:00N 52°16' E 003°04'816.4
2017-Oct-14 10:30N 52°22' E 003°12'916.3
2017-Oct-14 09:58N 52°30' E 003°20'816.3
2017-Oct-14 09:30N 52°36' E 003°28'816.3
2017-Oct-14 09:00N 52°42' E 003°37'816.4
2017-Oct-14 08:30N 52°48' E 003°45'816.7
2017-Oct-14 08:00N 52°55' E 003°54'917.1
2017-Oct-14 07:30N 53°00' E 004°04'917.5
2017-Oct-14 07:00N 53°06' E 004°16'917.7
2017-Oct-14 06:30N 53°12' E 004°26'917.8
2017-Oct-14 06:00N 53°20' E 004°32'917.8
2017-Oct-14 05:30N 53°28' E 004°39'917.6
2017-Oct-14 05:00N 53°32' E 004°53'917.5
2017-Oct-14 04:30N 53°35' E 005°07'917.1
2017-Oct-14 03:59N 53°38' E 005°20'3116.3
2017-Oct-14 02:04N 53°49' E 006°10'216.0
2017-Oct-14 01:58N 53°49' E 006°13'815.9
2017-Oct-14 01:28N 53°51' E 006°26'815.8
2017-Oct-14 00:59N 53°54' E 006°38'915.9
2017-Oct-14 00:27N 53°55' E 006°52'4916.9
2017-Oct-13 21:34N 54°01' E 008°15'1 7.9
2017-Oct-13 21:30N 54°00' E 008°15'713.2
2017-Oct-13 21:00N 53°59' E 008°26'918.6
2017-Oct-13 20:30N 53°55' E 008°40'714.0
2017-Oct-13 20:00N 53°50' E 008°49'816.7
2017-Oct-13 19:30N 53°52' E 009°03'611.3
2017-Oct-13 19:00N 53°53' E 009°13'612.8
2017-Oct-13 18:31N 53°49' E 009°22'713.1
2017-Oct-13 18:01N 53°44' E 009°27'612.3
2017-Oct-13 17:30N 53°38' E 009°32'611.8
2017-Oct-13 17:00N 53°34' E 009°39'510.0
2017-Oct-13 16:31N 53°33' E 009°47'4 8.8
2017-Oct-13 16:01N 53°33' E 009°55'3 6.1
2017-Oct-13 15:30N 53°32' E 009°60'0 0.0
2017-Oct-13 15:01N 53°32' E 009°60'0 0.0
2017-Oct-13 14:30N 53°32' E 009°60'0 0.0
2017-Oct-13 14:00N 53°32' E 009°60'0 0.0
2017-Oct-13 13:30N 53°32' E 009°60'0 0.0
2017-Oct-13 13:00N 53°32' E 009°60'0 0.0
2017-Oct-13 12:30N 53°32' E 009°60'0 0.0
2017-Oct-13 12:00N 53°32' E 009°60'0 0.0
2017-Oct-13 11:30N 53°32' E 009°60'0 0.0
2017-Oct-13 11:00N 53°32' E 009°60'0 0.0
2017-Oct-13 10:30N 53°32' E 009°60'0 0.0
2017-Oct-13 10:00N 53°32' E 009°60'0 0.0
2017-Oct-13 09:30N 53°32' E 009°60'0 0.0
2017-Oct-13 09:00N 53°32' E 009°60'0 0.0
2017-Oct-13 08:30N 53°32' E 009°60'0 0.0
2017-Oct-13 08:00N 53°32' E 009°60'0 0.0
2017-Oct-13 07:06N 53°32' E 009°60'0 0.0
2017-Oct-13 07:00N 53°32' E 009°60'0 0.0
2017-Oct-13 06:30N 53°32' E 009°60'0 0.0
2017-Oct-13 06:00N 53°32' E 009°60'0 0.9
2017-Oct-13 05:30N 53°32' E 009°59'3 6.7
2017-Oct-13 05:00N 53°32' E 009°53'4 7.6
2017-Oct-13 04:30N 53°33' E 009°47'510.1
2017-Oct-13 04:00N 53°34' E 009°39'612.9
2017-Oct-13 03:30N 53°39' E 009°31'612.3
2017-Oct-13 03:01N 53°44' E 009°26'714.0
2017-Oct-13 02:31N 53°50' E 009°20'713.7
2017-Oct-13 02:00N 53°53' E 009°09'510.7
2017-Oct-13 01:31N 53°51' E 009°01'612.0
2017-Oct-13 01:00N 53°50' E 008°50'611.8
2017-Oct-13 00:30N 53°53' E 008°42'612.8
2017-Oct-13 00:00N 53°58' E 008°34'714.8
2017-Oct-12 23:30N 53°59' E 008°22'1013.2
2017-Oct-12 22:46N 53°59' E 008°05'310.2
2017-Oct-12 22:30N 53°60' E 008°01'45 7.6
2017-Oct-12 16:31N 54°32' E 007°07'115.3
2017-Oct-12 16:29N 54°33' E 007°07'715.8
2017-Oct-12 16:01N 54°40' E 007°03'714.2
2017-Oct-12 15:30N 54°46' E 006°57'713.1
2017-Oct-12 15:00N 54°52' E 006°52'1019.7
2017-Oct-12 14:30N 54°60' E 006°43'1019.5
2017-Oct-12 14:01N 55°09' E 006°35'1019.7
2017-Oct-12 13:30N 55°17' E 006°27'4 0.8
2017-Oct-12 07:49N 55°21' E 006°23'514.7
2017-Oct-12 07:30N 55°18' E 006°28'713.1
2017-Oct-12 07:00N 55°12' E 006°35'713.4
2017-Oct-12 06:30N 55°07' E 006°41'714.1
2017-Oct-12 06:00N 55°00' E 006°45'  
Track history (hours):
 
Tides and Currents Weather Stations Pressure Air Temp Water Temp Dewpoint Dewpoint Depression Visibility Wind Speed Wind Dir Waves Ship Positions

Europa

Operator: Hapag-Lloyd Container Line

Last reported at 2017-Oct-22 06:00 UTC. Time now 2017-Oct-23 02:11 UTC.
Position N 45°04' W 000°38'.

Length 199 m; draft 6.2 m.

Type: Passenger vessel. MMSI: 308007000.

Date/timePositionNaut miles runAvg speedWind from/ knotsBaromVisibWave heightAir tempDewpointWater temp
2017-Oct-22 06:00N 45°04' W 000°38'612.1
2017-Oct-22 05:29N 45°09' W 000°43'713.3
2017-Oct-22 04:59N 45°16' W 000°45'714.3
2017-Oct-22 04:31N 45°22' W 000°49'714.3
2017-Oct-22 04:00N 45°28' W 000°55'714.0
2017-Oct-22 03:31N 45°33' W 001°02'714.2
2017-Oct-22 03:01N 45°39' W 001°08'612.8
2017-Oct-22 02:31N 45°38' W 001°17'714.4
2017-Oct-22 02:01N 45°35' W 001°26'713.6
2017-Oct-22 01:30N 45°41' W 001°31'714.8
2017-Oct-22 01:00N 45°48' W 001°35'714.5
2017-Oct-22 00:30N 45°55' W 001°37'714.6
2017-Oct-22 00:00N 46°02' W 001°38'612.0
2017-Oct-21 23:31N 46°07' W 001°34'612.5
2017-Oct-21 23:00N 46°07' W 001°25'4 8.3
2017-Oct-21 22:30N 46°06' W 001°20'3 6.9
2017-Oct-21 22:00N 46°08' W 001°15'2 4.0
2017-Oct-21 21:30N 46°10' W 001°14'0 0.0
2017-Oct-21 20:59N 46°10' W 001°14'0 0.0
2017-Oct-21 20:23N 46°10' W 001°14'0 0.0
2017-Oct-21 19:59N 46°10' W 001°14'0 0.0
2017-Oct-21 19:29N 46°10' W 001°14'0 0.0
2017-Oct-21 18:59N 46°10' W 001°14'0 0.0
2017-Oct-21 18:29N 46°10' W 001°14'0 0.0
2017-Oct-21 17:53N 46°10' W 001°14'0 0.0
2017-Oct-21 17:29N 46°10' W 001°14'0 0.0
2017-Oct-21 16:59N 46°10' W 001°14'0 0.0
2017-Oct-21 16:29N 46°10' W 001°14'0 0.0
2017-Oct-21 15:59N 46°10' W 001°14'0 0.0
2017-Oct-21 15:29N 46°10' W 001°14'0 0.0
2017-Oct-21 14:59N 46°10' W 001°14'0 0.0
2017-Oct-21 13:59N 46°10' W 001°14'0 0.0
2017-Oct-21 13:29N 46°10' W 001°14'0 0.0
2017-Oct-21 12:59N 46°10' W 001°14'0 0.0
2017-Oct-21 12:29N 46°10' W 001°14'0 0.0
2017-Oct-21 11:59N 46°10' W 001°14'0 0.0
2017-Oct-21 11:29N 46°10' W 001°14'0 0.0
2017-Oct-21 10:59N 46°10' W 001°14'0 0.0
2017-Oct-21 10:29N 46°10' W 001°14'0 0.0
2017-Oct-21 09:59N 46°10' W 001°14'0 0.0
2017-Oct-21 09:29N 46°10' W 001°14'0 0.0
2017-Oct-21 08:59N 46°10' W 001°14'0 0.0
2017-Oct-21 08:29N 46°10' W 001°14'0 0.0
2017-Oct-21 07:59N 46°10' W 001°14'0 0.0
2017-Oct-21 07:29N 46°10' W 001°14'0 0.0
2017-Oct-21 06:59N 46°10' W 001°14'0 0.0
2017-Oct-21 06:29N 46°10' W 001°14'0 0.0
2017-Oct-21 05:59N 46°10' W 001°14'0 0.0
2017-Oct-21 05:29N 46°10' W 001°14'0 0.0
2017-Oct-21 05:00N 46°10' W 001°14'0 0.4
2017-Oct-21 04:31N 46°10' W 001°15'3 6.2
2017-Oct-21 04:01N 46°07' W 001°16'611.3
2017-Oct-21 03:30N 46°06' W 001°24'612.9
2017-Oct-21 03:00N 46°07' W 001°33'713.2
2017-Oct-21 02:31N 46°09' W 001°42'713.2
2017-Oct-21 02:00N 46°13' W 001°49'713.2
2017-Oct-21 01:30N 46°18' W 001°56'713.4
2017-Oct-21 01:00N 46°22' W 002°03'713.5
2017-Oct-21 00:30N 46°27' W 002°10'713.5
2017-Oct-21 00:00N 46°32' W 002°16'713.3
2017-Oct-20 23:30N 46°37' W 002°24'714.8
2017-Oct-20 23:00N 46°42' W 002°32'815.0
2017-Oct-20 22:30N 46°48' W 002°37'815.4
2017-Oct-20 22:00N 46°56' W 002°41'713.3
2017-Oct-20 21:30N 47°02' W 002°37'816.9
2017-Oct-20 21:00N 47°05' W 002°26'612.4
2017-Oct-20 20:30N 47°09' W 002°19'815.6
2017-Oct-20 20:01N 47°16' W 002°12'815.1
2017-Oct-20 19:31N 47°18' W 002°01'713.2
2017-Oct-20 19:01N 47°16' W 001°52'611.6
2017-Oct-20 18:30N 47°12' W 001°46'5 9.0
2017-Oct-20 18:00N 47°11' W 001°39'3 5.8
2017-Oct-20 17:31N 47°12' W 001°35'1 1.4
2017-Oct-20 16:59N 47°12' W 001°36'0 0.0
2017-Oct-20 16:21N 47°12' W 001°36'0 0.0
2017-Oct-20 16:00N 47°12' W 001°36'0 0.0
2017-Oct-20 15:27N 47°12' W 001°36'0 0.0
2017-Oct-20 15:00N 47°12' W 001°36'0 0.0
2017-Oct-20 09:57N 47°12' W 001°36'0 0.0
2017-Oct-20 08:36N 47°12' W 001°36'0 0.0
2017-Oct-20 08:24N 47°12' W 001°36'0 0.0
2017-Oct-20 08:00N 47°12' W 001°36'0 0.0
2017-Oct-20 07:30N 47°12' W 001°36'0 0.0
2017-Oct-20 06:54N 47°12' W 001°36'0 0.0
2017-Oct-20 06:15N 47°12' W 001°36'0 0.0
2017-Oct-20 06:00N 47°12' W 001°36'0 0.0
2017-Oct-20 03:45N 47°12' W 001°36'0 0.0
2017-Oct-20 03:30N 47°12' W 001°36'0 0.0
2017-Oct-20 00:27N 47°12' W 001°36'0 0.0
2017-Oct-19 23:09N 47°12' W 001°36'0 0.0
2017-Oct-19 22:54N 47°12' W 001°36'0 0.0
2017-Oct-19 22:27N 47°12' W 001°36'0 0.0
2017-Oct-19 21:54N 47°12' W 001°36'0 0.0
2017-Oct-19 21:30N 47°12' W 001°36'0 0.0
2017-Oct-19 21:00N 47°12' W 001°36'0 0.0
2017-Oct-19 20:30N 47°12' W 001°36'0 0.0
2017-Oct-19 20:00N 47°12' W 001°36'0 0.0
2017-Oct-19 19:30N 47°12' W 001°36'0 0.0
2017-Oct-19 18:57N 47°12' W 001°36'0 0.0
2017-Oct-19 18:30N 47°12' W 001°36'0 0.0
2017-Oct-19 18:00N 47°12' W 001°36'0 0.0
2017-Oct-19 17:27N 47°12' W 001°36'0 0.0
2017-Oct-19 17:00N 47°12' W 001°36'0 0.0
2017-Oct-19 16:30N 47°12' W 001°36'0 0.0
2017-Oct-19 16:00N 47°12' W 001°36'0 0.0
2017-Oct-19 15:30N 47°12' W 001°36'0 0.0
2017-Oct-19 15:00N 47°12' W 001°36'0 0.0
2017-Oct-19 13:54N 47°12' W 001°36'0 0.0
2017-Oct-19 08:15N 47°12' W 001°36'0 0.0
2017-Oct-19 07:51N 47°12' W 001°36'0 0.0
2017-Oct-19 07:30N 47°12' W 001°36'0 0.0
2017-Oct-19 06:54N 47°12' W 001°36'0 0.0
2017-Oct-19 06:30N 47°12' W 001°36'0 0.0
2017-Oct-19 06:00N 47°12' W 001°36'0 0.0
2017-Oct-19 05:30N 47°12' W 001°36'0 0.2
2017-Oct-19 05:00N 47°12' W 001°36'3 5.7
2017-Oct-19 04:30N 47°12' W 001°40'510.4
2017-Oct-19 04:01N 47°13' W 001°48'611.5
2017-Oct-19 03:30N 47°17' W 001°54'612.2
2017-Oct-19 03:00N 47°18' W 002°02'611.7
2017-Oct-19 02:31N 47°17' W 002°11'611.8
2017-Oct-19 02:00N 47°12' W 002°17'612.1
2017-Oct-19 01:30N 47°07' W 002°22'5 9.7
2017-Oct-19 01:00N 47°04' W 002°27'611.2
2017-Oct-19 00:30N 47°01' W 002°34'510.8
2017-Oct-19 00:00N 46°59' W 002°42'611.1
2017-Oct-18 23:30N 47°01' W 002°49'611.8
2017-Oct-18 23:00N 47°05' W 002°56'714.0
2017-Oct-18 22:30N 47°08' W 003°05'713.8
2017-Oct-18 22:00N 47°12' W 003°14'713.2
2017-Oct-18 21:30N 47°15' W 003°22'713.5
2017-Oct-18 21:00N 47°19' W 003°31'713.8
2017-Oct-18 20:30N 47°22' W 003°39'713.8
2017-Oct-18 20:00N 47°26' W 003°48'713.6
2017-Oct-18 19:30N 47°28' W 003°57'713.8
2017-Oct-18 19:00N 47°32' W 004°06'713.6
2017-Oct-18 18:31N 47°34' W 004°15'713.6
2017-Oct-18 18:00N 47°38' W 004°25'714.2
2017-Oct-18 17:30N 47°41' W 004°34'917.8
2017-Oct-18 17:01N 47°46' W 004°45'918.0
2017-Oct-18 16:31N 47°52' W 004°55'918.2
2017-Oct-18 16:01N 47°58' W 005°05'816.0
2017-Oct-18 15:31N 48°05' W 005°10'816.4
2017-Oct-18 15:01N 48°10' W 004°60'1717.2
2017-Oct-18 14:01N 48°19' W 004°38'611.4
2017-Oct-18 13:30N 48°21' W 004°30'2 4.3
2017-Oct-18 12:58N 48°23' W 004°27'0 0.0
2017-Oct-18 12:28N 48°23' W 004°27'0 0.0
2017-Oct-18 11:58N 48°23' W 004°27'0 0.0
2017-Oct-18 11:28N 48°23' W 004°27'0 0.0
2017-Oct-18 10:58N 48°23' W 004°27'0 0.0
2017-Oct-18 10:28N 48°23' W 004°27'0 0.0
2017-Oct-18 09:58N 48°23' W 004°27'0 0.0
2017-Oct-18 09:28N 48°23' W 004°27'0 0.0
2017-Oct-18 09:00N 48°23' W 004°27'0 0.0
2017-Oct-18 08:28N 48°23' W 004°27'0 0.0
2017-Oct-18 07:58N 48°23' W 004°27'0 0.0
2017-Oct-18 07:28N 48°23' W 004°27'0 0.0
2017-Oct-18 06:58N 48°23' W 004°27'0 0.0
2017-Oct-18 06:28N 48°23' W 004°27'0 0.0
2017-Oct-18 05:58N 48°23' W 004°27'0 0.0
2017-Oct-18 05:28N 48°23' W 004°27'0 0.0
2017-Oct-18 04:58N 48°23' W 004°27'0 0.4
2017-Oct-18 04:30N 48°23' W 004°27'3 6.1
2017-Oct-18 04:00N 48°21' W 004°31'713.3
2017-Oct-18 03:30N 48°18' W 004°40'510.2
2017-Oct-18 03:01N 48°17' W 004°47'611.8
2017-Oct-18 02:30N 48°16' W 004°56'611.3
2017-Oct-18 02:00N 48°18' W 005°04'611.1
2017-Oct-18 01:31N 48°22' W 005°10'612.5
2017-Oct-18 01:01N 48°25' W 005°19'611.7
2017-Oct-18 00:30N 48°30' W 005°23'713.7
2017-Oct-17 23:58N 48°36' W 005°18'816.4
2017-Oct-17 23:30N 48°41' W 005°09'917.7
2017-Oct-17 23:00N 48°44' W 004°56'918.4
2017-Oct-17 22:30N 48°46' W 004°43'1019.1
2017-Oct-17 21:58N 48°50' W 004°28'919.7
2017-Oct-17 21:31N 48°52' W 004°15'1020.0
2017-Oct-17 21:00N 48°55' W 004°00'1419.5
2017-Oct-17 20:18N 48°58' W 003°40'6713.5
2017-Oct-17 15:18N 48°38' W 002°02'0 0.0
2017-Oct-17 09:57N 48°38' W 002°02'0 0.0
2017-Oct-17 08:57N 48°38' W 002°02'0 0.0
2017-Oct-17 08:27N 48°38' W 002°02'0 0.0
2017-Oct-17 08:00N 48°38' W 002°02'0 0.0
2017-Oct-17 07:21N 48°38' W 002°02'0 0.0
2017-Oct-17 07:00N 48°38' W 002°02'0 0.0
2017-Oct-17 06:30N 48°38' W 002°02'0 0.8
2017-Oct-17 06:00N 48°38' W 002°02'510.6
2017-Oct-17 05:30N 48°42' W 002°08'4 8.5
2017-Oct-17 05:00N 48°44' W 002°13'5 9.3
2017-Oct-17 04:30N 48°48' W 002°17'612.2
2017-Oct-17 04:00N 48°54' W 002°21'714.0
2017-Oct-17 03:31N 49°00' W 002°23'714.6
2017-Oct-17 03:00N 49°08' W 002°23'714.3
2017-Oct-17 02:30N 49°15' W 002°22'714.4
2017-Oct-17 02:00N 49°22' W 002°19'917.6
2017-Oct-17 01:29N 49°30' W 002°11'1619.4
2017-Oct-17 00:39N 49°44' W 002°02'319.2
2017-Oct-17 00:29N 49°47' W 001°58'1020.5
2017-Oct-17 00:00N 49°47' W 001°43'1020.5
2017-Oct-16 23:30N 49°47' W 001°27'1121.1
2017-Oct-16 23:00N 49°44' W 001°11'1020.2
2017-Oct-16 22:30N 49°40' W 000°57'918.7
2017-Oct-16 22:00N 49°37' W 000°43'918.5
2017-Oct-16 21:30N 49°34' W 000°30'917.8
2017-Oct-16 21:00N 49°31' W 000°17'917.4
2017-Oct-16 20:30N 49°29' W 000°04'611.8
2017-Oct-16 20:00N 49°26' E 000°04'611.9
2017-Oct-16 19:30N 49°26' E 000°13'611.2
2017-Oct-16 19:00N 49°26' E 000°22'611.4
2017-Oct-16 18:30N 49°29' E 000°29'4 8.6
2017-Oct-16 18:00N 49°26' E 000°34'4 8.8
2017-Oct-16 17:30N 49°29' E 000°40'2 0.0
2017-Oct-15 04:15N 49°27' E 000°40'411.3
2017-Oct-15 03:53N 49°27' E 000°33'4 8.7
2017-Oct-15 03:28N 49°29' E 000°29'613.8
2017-Oct-15 03:00N 49°26' E 000°20'611.9
2017-Oct-15 02:31N 49°26' E 000°11'612.8
2017-Oct-15 02:01N 49°27' E 000°01'510.8
2017-Oct-15 01:30N 49°29' W 000°07'4 8.5
2017-Oct-15 01:01N 49°33' W 000°11'611.3
2017-Oct-15 00:30N 49°38' W 000°10'611.2
2017-Oct-15 00:00N 49°44' W 000°09'611.5
2017-Oct-14 23:30N 49°49' W 000°09'611.3
2017-Oct-14 23:01N 49°55' W 000°08'611.4
2017-Oct-14 22:31N 50°01' W 000°06'611.7
2017-Oct-14 22:00N 50°07' W 000°05'612.0
2017-Oct-14 21:30N 50°13' W 000°05'814.6
2017-Oct-14 20:59N 50°20' W 000°04'714.6
2017-Oct-14 20:30N 50°27' W 000°02'815.1
2017-Oct-14 20:00N 50°29' E 000°09'815.0
2017-Oct-14 19:30N 50°31' E 000°20'714.7
2017-Oct-14 19:00N 50°34' E 000°31'714.4
2017-Oct-14 18:30N 50°38' E 000°41'816.1
2017-Oct-14 18:00N 50°42' E 000°51'917.4
2017-Oct-14 17:30N 50°47' E 001°03'917.4
2017-Oct-14 17:00N 50°52' E 001°14'917.8
2017-Oct-14 16:30N 50°59' E 001°23'918.8
2017-Oct-14 16:00N 51°06' E 001°34'1019.3
2017-Oct-14 15:30N 51°13' E 001°44'1019.3
2017-Oct-14 15:00N 51°21' E 001°52'918.9
2017-Oct-14 14:30N 51°29' E 002°01'918.5
2017-Oct-14 14:00N 51°36' E 002°10'918.2
2017-Oct-14 13:30N 51°43' E 002°19'917.7
2017-Oct-14 12:59N 51°50' E 002°30'1017.4
2017-Oct-14 12:24N 51°57' E 002°40'817.1
2017-Oct-14 11:58N 52°03' E 002°48'816.9
2017-Oct-14 11:30N 52°09' E 002°56'816.6
2017-Oct-14 11:00N 52°16' E 003°04'816.4
2017-Oct-14 10:30N 52°22' E 003°12'916.3
2017-Oct-14 09:58N 52°30' E 003°20'816.3
2017-Oct-14 09:30N 52°36' E 003°28'816.3
2017-Oct-14 09:00N 52°42' E 003°37'816.4
2017-Oct-14 08:30N 52°48' E 003°45'816.7
2017-Oct-14 08:00N 52°55' E 003°54'917.1
2017-Oct-14 07:30N 53°00' E 004°04'917.5
2017-Oct-14 07:00N 53°06' E 004°16'917.7
2017-Oct-14 06:30N 53°12' E 004°26'917.8
2017-Oct-14 06:00N 53°20' E 004°32'917.8
2017-Oct-14 05:30N 53°28' E 004°39'917.6
2017-Oct-14 05:00N 53°32' E 004°53'917.5
2017-Oct-14 04:30N 53°35' E 005°07'917.1
2017-Oct-14 03:59N 53°38' E 005°20'3116.3
2017-Oct-14 02:04N 53°49' E 006°10'216.0
2017-Oct-14 01:58N 53°49' E 006°13'815.9
2017-Oct-14 01:28N 53°51' E 006°26'815.8
2017-Oct-14 00:59N 53°54' E 006°38'915.9
2017-Oct-14 00:27N 53°55' E 006°52'4916.9
2017-Oct-13 21:34N 54°01' E 008°15'1 7.9
2017-Oct-13 21:30N 54°00' E 008°15'713.2
2017-Oct-13 21:00N 53°59' E 008°26'918.6
2017-Oct-13 20:30N 53°55' E 008°40'714.0
2017-Oct-13 20:00N 53°50' E 008°49'816.7
2017-Oct-13 19:30N 53°52' E 009°03'611.3
2017-Oct-13 19:00N 53°53' E 009°13'612.8
2017-Oct-13 18:31N 53°49' E 009°22'713.1
2017-Oct-13 18:01N 53°44' E 009°27'612.3
2017-Oct-13 17:30N 53°38' E 009°32'611.8
2017-Oct-13 17:00N 53°34' E 009°39'510.0
2017-Oct-13 16:31N 53°33' E 009°47'4 8.8
2017-Oct-13 16:01N 53°33' E 009°55'3 6.1
2017-Oct-13 15:30N 53°32' E 009°60'0 0.0
2017-Oct-13 15:01N 53°32' E 009°60'0 0.0
2017-Oct-13 14:30N 53°32' E 009°60'0 0.0
2017-Oct-13 14:00N 53°32' E 009°60'0 0.0
2017-Oct-13 13:30N 53°32' E 009°60'0 0.0
2017-Oct-13 13:00N 53°32' E 009°60'0 0.0
2017-Oct-13 12:30N 53°32' E 009°60'0 0.0
2017-Oct-13 12:00N 53°32' E 009°60'0 0.0
2017-Oct-13 11:30N 53°32' E 009°60'0 0.0
2017-Oct-13 11:00N 53°32' E 009°60'0 0.0
2017-Oct-13 10:30N 53°32' E 009°60'0 0.0
2017-Oct-13 10:00N 53°32' E 009°60'0 0.0
2017-Oct-13 09:30N 53°32' E 009°60'0 0.0
2017-Oct-13 09:00N 53°32' E 009°60'0 0.0
2017-Oct-13 08:30N 53°32' E 009°60'0 0.0
2017-Oct-13 08:00N 53°32' E 009°60'0 0.0
2017-Oct-13 07:06N 53°32' E 009°60'0 0.0
2017-Oct-13 07:00N 53°32' E 009°60'0 0.0
2017-Oct-13 06:30N 53°32' E 009°60'0 0.0
2017-Oct-13 06:00N 53°32' E 009°60'0 0.9
2017-Oct-13 05:30N 53°32' E 009°59'3 6.7
2017-Oct-13 05:00N 53°32' E 009°53'4 7.6
2017-Oct-13 04:30N 53°33' E 009°47'510.1
2017-Oct-13 04:00N 53°34' E 009°39'612.9
2017-Oct-13 03:30N 53°39' E 009°31'612.3
2017-Oct-13 03:01N 53°44' E 009°26'714.0
2017-Oct-13 02:31N 53°50' E 009°20'713.7
2017-Oct-13 02:00N 53°53' E 009°09'510.7
2017-Oct-13 01:31N 53°51' E 009°01'612.0
2017-Oct-13 01:00N 53°50' E 008°50'611.8
2017-Oct-13 00:30N 53°53' E 008°42'612.8
2017-Oct-13 00:00N 53°58' E 008°34'714.8
2017-Oct-12 23:30N 53°59' E 008°22'1013.2
2017-Oct-12 22:46N 53°59' E 008°05'310.2
2017-Oct-12 22:30N 53°60' E 008°01'45 7.6
2017-Oct-12 16:31N 54°32' E 007°07'115.3
2017-Oct-12 16:29N 54°33' E 007°07'715.8
2017-Oct-12 16:01N 54°40' E 007°03'714.2
2017-Oct-12 15:30N 54°46' E 006°57'713.1
2017-Oct-12 15:00N 54°52' E 006°52'1019.7
2017-Oct-12 14:30N 54°60' E 006°43'1019.5
2017-Oct-12 14:01N 55°09' E 006°35'1019.7
2017-Oct-12 13:30N 55°17' E 006°27'4 0.8
2017-Oct-12 07:49N 55°21' E 006°23'514.7
2017-Oct-12 07:30N 55°18' E 006°28'713.1
2017-Oct-12 07:00N 55°12' E 006°35'713.4
2017-Oct-12 06:30N 55°07' E 006°41'714.1
2017-Oct-12 06:00N 55°00' E 006°45'  

Dump ship's entire track history